Time;durP1;ratioP1;P1;durP2;ratioP2;P2;SDS_P1;SDS_P2;PMS_P1;PMS_P2;Temp;Humidity;BMP_temperature;BMP_pressure;BME280_temperature;BME280_humidity;BME280_pressure;Samples;Min_cycle;Max_cycle;Signal;HPM_P1;HPM_P2
2021/05/09 00:01:00;;;;;;;37.80;33.90;;;26.30;47.80;;;;;;5073501;28;20082;-58
2021/05/09 00:03:26;;;;;;;38.70;34.78;;;26.30;47.90;;;;;;5073443;28;20029;-58
2021/05/09 00:05:53;;;;;;;39.08;35.15;;;26.30;47.90;;;;;;5072501;28;20339;-58
2021/05/09 00:08:19;;;;;;;39.03;34.92;;;26.30;48.00;;;;;;5073320;28;20039;-58
2021/05/09 00:10:45;;;;;;;38.67;34.63;;;26.20;47.90;;;;;;5072986;28;20036;-58
2021/05/09 00:13:11;;;;;;;39.42;34.72;;;26.20;47.90;;;;;;5088679;28;20138;-58
2021/05/09 00:15:38;;;;;;;36.15;32.42;;;26.30;48.00;;;;;;5073561;28;20036;-58
2021/05/09 00:18:04;;;;;;;37.17;33.10;;;26.20;48.00;;;;;;5073282;28;20513;-58
2021/05/09 00:20:31;;;;;;;38.05;34.28;;;26.20;48.00;;;;;;5073593;28;20039;-58
2021/05/09 00:22:57;;;;;;;39.80;35.65;;;26.20;48.00;;;;;;5055326;28;20120;-58
2021/05/09 00:25:23;;;;;;;39.22;35.20;;;26.20;48.00;;;;;;5073066;28;20060;-58
2021/05/09 00:27:49;;;;;;;41.00;36.85;;;26.20;48.10;;;;;;5072955;28;20528;-58
2021/05/09 00:30:16;;;;;;;39.30;35.30;;;26.20;48.10;;;;;;5072938;28;20116;-58
2021/05/09 00:32:46;;;;;;;41.30;37.08;;;26.20;48.10;;;;;;5088281;28;20068;-58
2021/05/09 00:35:12;;;;;;;39.65;35.65;;;26.20;48.20;;;;;;5072678;28;20040;-59
2021/05/09 00:37:38;;;;;;;43.40;38.10;;;26.20;48.20;;;;;;5072769;28;20130;-58
2021/05/09 00:40:06;;;;;;;41.92;37.63;;;26.20;48.10;;;;;;5072955;28;20047;-58
2021/05/09 00:42:32;;;;;;;41.33;37.28;;;26.20;48.20;;;;;;5072726;28;20040;-58
2021/05/09 00:44:58;;;;;;;42.13;37.83;;;26.20;48.20;;;;;;5054503;28;20436;-58
2021/05/09 00:47:24;;;;;;;41.33;37.17;;;26.20;48.20;;;;;;5072642;28;20091;-58
2021/05/09 00:49:51;;;;;;;40.08;35.97;;;26.20;48.20;;;;;;5087722;28;20474;-58
2021/05/09 00:52:18;;;;;;;39.47;35.60;;;26.20;48.30;;;;;;5070895;28;20119;-58
2021/05/09 00:54:55;;;;;;;39.28;35.30;;;26.20;48.30;;;;;;5054651;28;20071;-58
2021/05/09 00:57:22;;;;;;;39.55;35.40;;;26.10;48.30;;;;;;5073201;28;20097;-58
2021/05/09 00:59:52;;;;;;;38.88;34.88;;;26.20;48.40;;;;;;5055356;28;20036;-58
2021/05/09 01:02:19;;;;;;;38.70;34.85;;;26.10;48.40;;;;;;5055220;28;20068;-58
2021/05/09 01:04:46;;;;;;;38.78;34.67;;;26.10;48.30;;;;;;5088542;28;20070;-58
2021/05/09 01:07:14;;;;;;;37.55;33.63;;;26.10;48.40;;;;;;5073243;28;20062;-58
2021/05/09 01:09:41;;;;;;;36.58;32.60;;;26.10;48.40;;;;;;5073216;28;20044;-58
2021/05/09 01:12:12;;;;;;;37.58;33.75;;;26.10;48.40;;;;;;5055094;28;20482;-58
2021/05/09 01:14:42;;;;;;;39.47;35.47;;;26.10;48.50;;;;;;5055134;28;20530;-58
2021/05/09 01:17:11;;;;;;;36.88;33.10;;;26.10;48.50;;;;;;5054559;28;20067;-58
2021/05/09 01:19:39;;;;;;;35.85;32.25;;;26.20;48.60;;;;;;5072730;28;20035;-57
2021/05/09 01:22:10;;;;;;;34.83;31.38;;;26.10;48.50;;;;;;5072720;28;20040;-57
2021/05/09 01:24:37;;;;;;;34.78;31.08;;;26.10;48.60;;;;;;5072476;28;20153;-58
2021/05/09 01:27:04;;;;;;;34.40;31.00;;;26.10;48.60;;;;;;5072608;28;20089;-58
2021/05/09 01:29:32;;;;;;;34.10;30.50;;;26.10;48.60;;;;;;5054377;28;20036;-57
2021/05/09 01:32:01;;;;;;;31.58;28.38;;;26.10;48.70;;;;;;5087933;28;20131;-57
2021/05/09 01:34:34;;;;;;;32.60;29.23;;;26.10;48.70;;;;;;5087787;28;20067;-58
2021/05/09 01:37:00;;;;;;;31.70;28.27;;;26.10;48.70;;;;;;5071941;28;20048;-58
2021/05/09 01:39:27;;;;;;;32.15;28.60;;;26.10;48.70;;;;;;5071743;28;20467;-57
2021/05/09 01:41:53;;;;;;;30.70;27.60;;;26.10;48.70;;;;;;5072533;28;20104;-59
2021/05/09 01:44:19;;;;;;;30.63;27.45;;;26.10;48.70;;;;;;5054442;28;20029;-58
2021/05/09 01:46:45;;;;;;;28.35;25.27;;;26.10;48.80;;;;;;5072642;28;20044;-57
2021/05/09 01:49:11;;;;;;;28.60;25.80;;;26.10;48.80;;;;;;5072289;28;20036;-57
2021/05/09 01:51:37;;;;;;;28.35;25.38;;;26.10;48.80;;;;;;5071855;28;20474;-58
2021/05/09 01:54:04;;;;;;;27.92;24.88;;;26.10;48.80;;;;;;5054203;28;20064;-58
2021/05/09 01:56:30;;;;;;;27.60;24.80;;;26.10;48.90;;;;;;5054281;28;20142;-58
2021/05/09 01:58:57;;;;;;;25.58;22.92;;;26.10;48.90;;;;;;5087963;28;20397;-58
2021/05/09 02:01:30;;;;;;;23.95;21.65;;;26.10;48.90;;;;;;5072113;28;20040;-58
2021/05/09 02:04:09;;;;;;;22.77;20.55;;;26.00;48.80;;;;;;5054086;28;20133;-58
2021/05/09 02:06:36;;;;;;;23.35;21.02;;;26.00;48.80;;;;;;5054256;28;20067;-58
2021/05/09 02:09:03;;;;;;;23.40;20.98;;;26.10;48.90;;;;;;5071884;28;20032;-58
2021/05/09 02:11:35;;;;;;;22.55;20.27;;;26.00;48.90;;;;;;5071027;28;20043;-57
2021/05/09 02:14:08;;;;;;;21.95;19.38;;;26.00;48.90;;;;;;5052754;28;20127;-58
2021/05/09 02:16:35;;;;;;;22.20;19.97;;;26.00;48.90;;;;;;5071390;28;20101;-57
2021/05/09 02:19:04;;;;;;;21.33;19.25;;;26.00;48.90;;;;;;5053719;28;20067;-58
2021/05/09 02:21:46;;;;;;;20.50;18.25;;;26.00;49.00;;;;;;5087129;28;20394;-58
2021/05/09 02:24:12;;;;;;;19.60;17.52;;;26.00;49.00;;;;;;5071520;28;20033;-58
2021/05/09 02:26:38;;;;;;;18.35;16.55;;;26.00;49.00;;;;;;5071677;28;20032;-58
2021/05/09 02:29:06;;;;;;;18.52;16.70;;;26.00;49.10;;;;;;5086835;28;20480;-58
2021/05/09 02:31:33;;;;;;;19.38;17.27;;;26.00;49.10;;;;;;5053873;28;20401;-58
2021/05/09 02:33:59;;;;;;;17.90;15.93;;;26.00;49.10;;;;;;5053503;28;20044;-58
2021/05/09 02:36:25;;;;;;;17.55;15.82;;;26.00;49.10;;;;;;5086658;28;20049;-58
2021/05/09 02:38:51;;;;;;;18.88;16.75;;;25.90;49.10;;;;;;5070990;28;20028;-58
2021/05/09 02:41:20;;;;;;;18.15;16.25;;;26.00;49.20;;;;;;5053531;28;20504;-58
2021/05/09 02:43:46;;;;;;;16.20;14.57;;;25.90;49.20;;;;;;5071812;28;20029;-58
2021/05/09 02:46:12;;;;;;;15.80;14.20;;;26.00;49.20;;;;;;5037018;28;20037;-58
2021/05/09 02:48:39;;;;;;;15.55;13.95;;;26.00;49.20;;;;;;5053559;28;20493;-58
2021/05/09 02:51:05;;;;;;;16.27;14.57;;;26.00;49.20;;;;;;5053660;28;20493;-58
2021/05/09 02:53:31;;;;;;;15.25;13.77;;;26.00;49.30;;;;;;5036045;28;20037;-58
2021/05/09 02:55:58;;;;;;;16.20;14.35;;;26.00;49.30;;;;;;5053435;28;20090;-59
2021/05/09 02:58:24;;;;;;;16.05;13.85;;;25.90;49.30;;;;;;5053608;28;20039;-58
2021/05/09 03:00:50;;;;;;;14.70;12.95;;;25.90;49.30;;;;;;5071616;28;20375;-58
2021/05/09 03:03:18;;;;;;;15.63;12.50;;;25.90;49.30;;;;;;5071798;28;20056;-58
2021/05/09 03:05:45;;;;;;;16.42;13.00;;;25.90;49.30;;;;;;5071725;28;20377;-58
2021/05/09 03:08:13;;;;;;;14.68;13.15;;;25.90;49.30;;;;;;5053380;28;20388;-58
2021/05/09 03:10:43;;;;;;;14.30;12.52;;;25.90;49.40;;;;;;5053394;28;20044;-58
2021/05/09 03:13:10;;;;;;;12.77;11.13;;;25.90;49.40;;;;;;5053504;28;20063;-58
2021/05/09 03:15:36;;;;;;;13.50;12.20;;;25.90;49.40;;;;;;5071295;28;20044;-58
2021/05/09 03:18:02;;;;;;;14.27;12.55;;;25.90;49.40;;;;;;5053453;28;20047;-58
2021/05/09 03:20:28;;;;;;;13.13;11.80;;;25.90;49.40;;;;;;5071376;28;20032;-58
2021/05/09 03:22:55;;;;;;;12.65;11.40;;;25.90;49.40;;;;;;5053200;28;20079;-58
2021/05/09 03:25:21;;;;;;;12.40;11.20;;;25.90;49.40;;;;;;5071355;28;20040;-59
2021/05/09 03:27:47;;;;;;;13.55;12.13;;;25.90;49.50;;;;;;5071452;28;20060;-59
2021/05/09 03:30:13;;;;;;;12.80;11.38;;;25.90;49.50;;;;;;5071556;28;20067;-58
2021/05/09 03:32:39;;;;;;;12.07;10.85;;;25.90;49.50;;;;;;5053288;28;20086;-59
2021/05/09 03:35:10;;;;;;;13.13;10.75;;;25.90;49.50;;;;;;5070783;28;20052;-58
2021/05/09 03:37:36;;;;;;;11.95;10.73;;;25.90;49.60;;;;;;5071405;28;20048;-58
2021/05/09 03:40:05;;;;;;;11.77;10.60;;;25.80;49.40;;;;;;5071638;28;20032;-58
2021/05/09 03:42:31;;;;;;;12.15;10.93;;;25.80;49.50;;;;;;5074809;28;20067;-58
2021/05/09 03:44:57;;;;;;;13.50;11.82;;;25.90;49.50;;;;;;5074479;28;20056;-58
2021/05/09 03:47:26;;;;;;;14.07;10.45;;;25.90;49.60;;;;;;5074494;28;20036;-58
2021/05/09 03:49:55;;;;;;;14.98;10.63;;;25.90;49.60;;;;;;5074711;28;20446;-58
2021/05/09 03:52:21;;;;;;;12.32;10.57;;;25.90;49.60;;;;;;5074630;28;20474;-59
2021/05/09 03:54:47;;;;;;;12.02;10.45;;;25.90;49.60;;;;;;5074965;28;20055;-58
2021/05/09 03:57:13;;;;;;;11.90;10.70;;;25.90;49.70;;;;;;5074615;28;20037;-58
2021/05/09 03:59:40;;;;;;;11.02;9.98;;;25.90;49.70;;;;;;5074210;28;20404;-58
2021/05/09 04:02:06;;;;;;;12.65;11.35;;;25.80;49.60;;;;;;5056698;28;20328;-58
2021/05/09 04:04:32;;;;;;;11.30;10.20;;;25.80;49.60;;;;;;5074655;28;20178;-58
2021/05/09 04:06:58;;;;;;;10.85;9.77;;;25.80;49.60;;;;;;5074664;28;20035;-58
2021/05/09 04:09:24;;;;;;;12.45;10.07;;;25.80;49.70;;;;;;5074750;28;20041;-58
2021/05/09 04:11:50;;;;;;;11.10;9.93;;;25.80;49.60;;;;;;5074668;28;20150;-58
2021/05/09 04:14:17;;;;;;;11.38;10.15;;;25.80;49.60;;;;;;5074328;28;20119;-59
2021/05/09 04:16:43;;;;;;;10.88;9.57;;;25.80;49.70;;;;;;5073877;28;20032;-58
2021/05/09 04:19:09;;;;;;;14.70;10.60;;;25.80;49.70;;;;;;5074309;28;20036;-58
2021/05/09 04:21:35;;;;;;;10.63;9.52;;;25.80;49.80;;;;;;5074184;28;20048;-58
2021/05/09 04:24:02;;;;;;;11.07;8.95;;;25.80;49.80;;;;;;5074648;28;20028;-58
2021/05/09 04:26:27;;;;;;;10.55;9.52;;;25.80;49.80;;;;;;5074254;28;20039;-58
2021/05/09 04:28:53;;;;;;;11.20;10.02;;;25.80;49.80;;;;;;5074504;28;20032;-58
2021/05/09 04:31:20;;;;;;;10.77;9.35;;;25.80;49.80;;;;;;5073944;28;20094;-58
2021/05/09 04:33:46;;;;;;;10.30;9.18;;;25.80;49.80;;;;;;5074406;28;20128;-58
2021/05/09 04:36:12;;;;;;;10.10;8.80;;;25.80;49.80;;;;;;5073680;28;20116;-58
2021/05/09 04:38:38;;;;;;;9.10;8.20;;;25.80;49.90;;;;;;5073778;28;20029;-58
2021/05/09 04:41:04;;;;;;;10.32;8.35;;;25.80;49.90;;;;;;5074146;28;20067;-58
2021/05/09 04:43:30;;;;;;;10.20;8.65;;;25.80;49.90;;;;;;5073851;28;20638;-59
2021/05/09 04:45:56;;;;;;;11.75;9.07;;;25.80;49.90;;;;;;5055631;28;20045;-58
2021/05/09 04:48:24;;;;;;;9.68;8.63;;;25.80;50.00;;;;;;5073703;28;20086;-58
2021/05/09 04:50:51;;;;;;;10.02;8.23;;;25.80;50.00;;;;;;5073004;28;20051;-58
2021/05/09 04:53:29;;;;;;;9.40;8.50;;;25.80;50.00;;;;;;5073499;28;20086;-58
2021/05/09 04:55:59;;;;;;;9.23;8.38;;;25.80;50.10;;;;;;5073495;28;20076;-58
2021/05/09 04:58:27;;;;;;;9.63;7.90;;;25.70;50.00;;;;;;5073550;28;20165;-58
2021/05/09 05:00:55;;;;;;;8.57;7.72;;;25.70;50.00;;;;;;5073384;28;20029;-59
2021/05/09 05:03:21;;;;;;;9.10;7.60;;;25.70;50.00;;;;;;5073381;28;20116;-58
2021/05/09 05:05:48;;;;;;;9.73;8.55;;;25.70;50.00;;;;;;5073311;28;20453;-58
2021/05/09 05:08:14;;;;;;;11.23;7.97;;;25.70;50.10;;;;;;5073452;28;20089;-58
2021/05/09 05:10:40;;;;;;;10.75;8.02;;;25.70;50.00;;;;;;5073289;28;20076;-58
2021/05/09 05:13:26;;;;;;;9.45;7.82;;;25.70;50.10;;;;;;5073420;28;20040;-58
2021/05/09 05:15:55;;;;;;;9.48;8.48;;;25.70;50.10;;;;;;5072971;28;20506;-58
2021/05/09 05:18:23;;;;;;;9.20;7.35;;;25.70;50.10;;;;;;5073286;28;20025;-58
2021/05/09 05:20:49;;;;;;;7.80;7.03;;;25.70;50.20;;;;;;5073033;28;20036;-58
2021/05/09 05:23:16;;;;;;;8.38;7.47;;;25.70;50.20;;;;;;5072371;28;20132;-58
2021/05/09 05:25:43;;;;;;;9.30;7.45;;;25.70;50.20;;;;;;5072949;28;20085;-58
2021/05/09 05:28:09;;;;;;;8.68;6.75;;;25.70;50.20;;;;;;5072725;28;20123;-58
2021/05/09 05:30:36;;;;;;;11.35;7.03;;;25.70;50.20;;;;;;5072887;28;20036;-58
2021/05/09 05:33:03;;;;;;;7.85;6.70;;;25.70;50.20;;;;;;5073013;28;20060;-58
2021/05/09 05:35:29;;;;;;;7.85;7.05;;;25.60;50.20;;;;;;5054705;28;20063;-58
2021/05/09 05:37:56;;;;;;;8.10;6.53;;;25.60;50.20;;;;;;5054752;28;20045;-58
2021/05/09 05:40:23;;;;;;;8.27;6.63;;;25.70;50.20;;;;;;5072493;28;20463;-58
2021/05/09 05:42:50;;;;;;;9.27;6.78;;;25.70;50.30;;;;;;5072418;28;20037;-58
2021/05/09 05:45:16;;;;;;;7.70;6.43;;;25.60;50.20;;;;;;5072927;28;20067;-58
2021/05/09 05:47:42;;;;;;;7.32;5.93;;;25.70;50.30;;;;;;5072398;28;20028;-59
2021/05/09 05:50:09;;;;;;;7.88;6.32;;;25.60;50.20;;;;;;5072841;28;20075;-58
2021/05/09 05:52:35;;;;;;;8.80;6.45;;;25.60;50.30;;;;;;5071889;28;20133;-58
2021/05/09 05:55:02;;;;;;;8.50;6.60;;;25.60;50.40;;;;;;5072845;28;20098;-58
2021/05/09 05:57:28;;;;;;;6.38;5.78;;;25.60;50.30;;;;;;5072605;28;20032;-59
2021/05/09 05:59:54;;;;;;;6.40;5.47;;;25.60;50.30;;;;;;5072301;28;20036;-58
2021/05/09 06:02:21;;;;;;;6.45;5.35;;;25.60;50.40;;;;;;5054159;28;20029;-58
2021/05/09 06:04:48;;;;;;;7.93;5.30;;;25.60;50.40;;;;;;5069965;28;20580;-58
2021/05/09 06:07:15;;;;;;;6.47;5.60;;;25.60;50.50;;;;;;5071362;28;20040;-58
2021/05/09 06:09:41;;;;;;;7.25;5.00;;;25.60;50.40;;;;;;5072198;28;20072;-58
2021/05/09 06:12:08;;;;;;;7.85;5.50;;;25.60;50.40;;;;;;5071628;28;20041;-58
2021/05/09 06:14:34;;;;;;;7.80;5.82;;;25.60;50.40;;;;;;5071472;28;20063;-57
2021/05/09 06:17:00;;;;;;;7.35;5.00;;;25.60;50.40;;;;;;5071143;28;20094;-58
2021/05/09 06:19:26;;;;;;;8.38;4.53;;;25.60;50.50;;;;;;5071965;28;20409;-59
2021/05/09 06:21:52;;;;;;;7.47;5.18;;;25.60;50.70;;;;;;5071774;28;20040;-58
2021/05/09 06:24:18;;;;;;;10.73;9.07;;;25.60;50.60;;;;;;5072230;28;20478;-59
2021/05/09 06:26:44;;;;;;;24.98;21.40;;;25.50;50.70;;;;;;5072635;28;20083;-58
2021/05/09 06:29:10;;;;;;;23.52;21.02;;;25.50;50.60;;;;;;5054572;28;20072;-58
2021/05/09 06:31:36;;;;;;;28.02;23.90;;;25.50;50.70;;;;;;5072378;28;20067;-58
2021/05/09 06:34:02;;;;;;;17.90;15.40;;;25.50;50.80;;;;;;5072100;28;20081;-58
2021/05/09 06:36:29;;;;;;;17.85;14.15;;;25.50;50.90;;;;;;5072163;28;20249;-59
2021/05/09 06:38:55;;;;;;;17.75;15.60;;;25.50;51.00;;;;;;5071866;28;20559;-58
2021/05/09 06:41:21;;;;;;;18.23;12.25;;;25.50;51.10;;;;;;5072273;28;20041;-59
2021/05/09 06:43:53;;;;;;;11.43;8.50;;;25.50;51.10;;;;;;5072166;28;20032;-59
2021/05/09 06:46:21;;;;;;;10.43;8.45;;;25.40;51.10;;;;;;5072305;28;20076;-58
2021/05/09 06:48:47;;;;;;;11.70;7.43;;;25.50;51.20;;;;;;5072643;28;20029;-59
2021/05/09 06:51:13;;;;;;;9.38;6.70;;;25.40;51.10;;;;;;5072420;28;20131;-59
2021/05/09 06:53:39;;;;;;;12.13;6.45;;;25.40;51.20;;;;;;5072358;28;20494;-59
2021/05/09 06:56:05;;;;;;;7.60;4.72;;;25.50;51.30;;;;;;5072022;28;20065;-60
2021/05/09 06:58:31;;;;;;;7.07;4.10;;;25.50;51.30;;;;;;5054021;28;20131;-60
2021/05/09 07:00:57;;;;;;;7.05;3.75;;;25.50;51.30;;;;;;5072192;28;20091;-60
2021/05/09 07:03:23;;;;;;;6.80;3.17;;;25.50;51.20;;;;;;5072185;28;20213;-60
2021/05/09 07:05:49;;;;;;;4.90;3.40;;;25.50;51.40;;;;;;5071483;28;20117;-54
2021/05/09 07:08:15;;;;;;;8.27;3.38;;;25.50;51.50;;;;;;5071787;28;20504;-53
2021/05/09 07:10:41;;;;;;;6.07;2.88;;;25.40;51.50;;;;;;5071116;28;20033;-66
2021/05/09 07:13:07;;;;;;;5.00;2.35;;;25.40;51.50;;;;;;5071147;28;20096;-59
2021/05/09 07:15:36;;;;;;;6.13;3.03;;;25.40;51.60;;;;;;5074539;28;20138;-59
2021/05/09 07:20:36;;;;;;;6.15;3.22;;;25.50;52.20;;;;;;5075621;28;20103;-59
2021/05/09 07:23:04;;;;;;;4.80;3.60;;;25.50;52.10;;;;;;5075349;28;20104;-57
2021/05/09 07:25:30;;;;;;;6.30;2.92;;;25.50;52.10;;;;;;5075064;28;20036;-52
2021/05/09 07:28:10;;;;;;;10.07;4.10;;;25.50;52.10;;;;;;5074744;28;20372;-53
2021/05/09 07:30:38;;;;;;;62.17;56.03;;;25.50;52.20;;;;;;5072913;28;20037;-52
2021/05/09 07:33:04;;;;;;;43.20;38.45;;;25.50;52.10;;;;;;5075391;28;20044;-53
2021/05/09 07:35:30;;;;;;;31.08;27.98;;;25.50;52.10;;;;;;5057609;28;20045;-52
2021/05/09 07:38:04;;;;;;;15.45;13.75;;;25.50;52.00;;;;;;5075452;28;20029;-53
2021/05/09 07:40:30;;;;;;;10.65;6.75;;;25.50;52.00;;;;;;5075305;28;20024;-53
2021/05/09 07:42:56;;;;;;;10.63;5.40;;;25.60;52.20;;;;;;5056681;28;20033;-53
2021/05/09 07:45:23;;;;;;;8.98;5.13;;;25.60;52.10;;;;;;5074464;28;20043;-52
2021/05/09 07:47:50;;;;;;;6.50;3.85;;;25.60;52.00;;;;;;5075159;28;20119;-52
2021/05/09 07:50:18;;;;;;;9.73;4.47;;;25.60;52.00;;;;;;5075537;28;20120;-52
2021/05/09 07:52:46;;;;;;;8.77;3.20;;;25.60;52.00;;;;;;5074191;28;20028;-52
2021/05/09 07:55:13;;;;;;;5.32;2.50;;;25.70;52.40;;;;;;5090110;28;20060;-52
2021/05/09 07:57:40;;;;;;;10.60;2.75;;;25.70;52.50;;;;;;5074467;28;20532;-52
2021/05/09 08:00:08;;;;;;;5.45;2.70;;;25.70;53.00;;;;;;5075148;28;20039;-52
2021/05/09 08:02:39;;;;;;;7.07;2.17;;;25.70;52.60;;;;;;5075126;28;20082;-52
2021/05/09 08:05:06;;;;;;;6.45;2.70;;;25.80;52.90;;;;;;5051786;28;20040;-50
2021/05/09 08:07:32;;;;;;;6.45;2.38;;;25.80;52.60;;;;;;5073942;28;20052;-53
2021/05/09 08:09:58;;;;;;;7.28;2.92;;;25.90;52.70;;;;;;5071082;28;20528;-53
2021/05/09 08:12:24;;;;;;;6.07;2.90;;;25.90;52.60;;;;;;5053058;28;20048;-53
2021/05/09 08:14:50;;;;;;;3.97;2.17;;;25.90;52.70;;;;;;5073331;28;20440;-53
2021/05/09 08:17:16;;;;;;;6.82;2.70;;;25.80;52.60;;;;;;5073600;28;20135;-53
2021/05/09 08:19:43;;;;;;;5.70;2.10;;;25.80;52.50;;;;;;5073595;28;20040;-53
2021/05/09 08:22:09;;;;;;;6.05;2.38;;;25.90;52.40;;;;;;5073177;28;20488;-53
2021/05/09 08:24:35;;;;;;;8.43;2.20;;;25.80;52.30;;;;;;5052571;28;20483;-53
2021/05/09 08:27:01;;;;;;;6.90;2.35;;;25.80;52.40;;;;;;5072942;28;20049;-53
2021/05/09 08:29:27;;;;;;;8.55;2.88;;;25.80;52.30;;;;;;5072779;28;20032;-51
2021/05/09 08:31:53;;;;;;;9.15;2.42;;;25.90;52.70;;;;;;5066100;28;20422;-51
2021/05/09 08:34:19;;;;;;;6.55;2.63;;;25.80;52.70;;;;;;5073468;28;20057;-51
2021/05/09 08:36:45;;;;;;;7.00;2.80;;;25.80;52.70;;;;;;5074200;28;20044;-51
2021/05/09 08:39:11;;;;;;;6.30;2.63;;;25.80;51.20;;;;;;5070320;28;20496;-51
2021/05/09 08:41:40;;;;;;;6.03;2.72;;;25.80;51.20;;;;;;5073810;28;20037;-51
2021/05/09 08:44:10;;;;;;;5.57;2.00;;;25.80;51.70;;;;;;5070095;28;20036;-51
2021/05/09 08:46:37;;;;;;;5.32;1.90;;;25.60;52.30;;;;;;5073946;28;20086;-51
2021/05/09 08:49:04;;;;;;;43.40;38.75;;;25.60;52.50;;;;;;5072489;28;20082;-52
2021/05/09 08:51:31;;;;;;;5.28;3.90;;;25.60;52.60;;;;;;5073168;28;20041;-52
2021/05/09 08:53:58;;;;;;;5.97;2.50;;;25.60;53.50;;;;;;5072661;28;20037;-52
2021/05/09 08:56:27;;;;;;;6.55;2.83;;;25.60;53.00;;;;;;5073567;28;20045;-52
2021/05/09 08:58:53;;;;;;;4.33;2.40;;;25.60;53.30;;;;;;5073109;28;20036;-52
2021/05/09 09:01:19;;;;;;;8.30;3.05;;;25.50;53.50;;;;;;5054315;28;20041;-52
2021/05/09 09:03:46;;;;;;;6.80;3.15;;;25.50;54.00;;;;;;5088724;28;20389;-52
2021/05/09 09:06:18;;;;;;;6.72;3.22;;;25.50;54.50;;;;;;5073234;28;20469;-52
2021/05/09 09:08:49;;;;;;;7.90;3.22;;;25.40;54.60;;;;;;5072719;28;20159;-52
2021/05/09 09:11:27;;;;;;;10.85;2.95;;;25.50;54.60;;;;;;5070533;28;20060;-52
2021/05/09 09:14:12;;;;;;;5.90;2.67;;;25.40;54.40;;;;;;5072471;28;20351;-52
2021/05/09 09:16:39;;;;;;;7.13;2.92;;;25.30;54.40;;;;;;5072822;28;20043;-52
2021/05/09 09:19:14;;;;;;;9.18;3.35;;;25.30;54.90;;;;;;5072081;28;20028;-51
2021/05/09 09:21:41;;;;;;;11.45;3.72;;;25.30;55.40;;;;;;5054695;28;20452;-51
2021/05/09 09:24:11;;;;;;;6.05;3.20;;;25.30;55.30;;;;;;5072744;28;20450;-51
2021/05/09 09:26:37;;;;;;;;;;;25.30;55.00;;;;;;5055102;28;20037;-51
2021/05/09 09:29:28;;;;;;;7.68;3.30;;;25.30;54.60;;;;;;5072601;28;19914;-51
2021/05/09 09:31:57;;;;;;;55.25;49.67;;;25.40;54.70;;;;;;5056891;28;20036;-51
2021/05/09 09:34:40;;;;;;;36.85;33.08;;;25.50;54.80;;;;;;5072190;28;20081;-51
2021/05/09 09:37:07;;;;;;;15.77;9.82;;;25.50;54.60;;;;;;5072423;28;20433;-52
2021/05/09 09:39:46;;;;;;;14.48;9.52;;;25.60;54.50;;;;;;5071126;28;20490;-56
2021/05/09 09:42:13;;;;;;;12.27;6.68;;;25.70;54.40;;;;;;5069570;28;20040;-56
2021/05/09 09:44:39;;;;;;;10.82;5.97;;;25.80;54.40;;;;;;5067147;28;20056;-56
2021/05/09 09:47:05;;;;;;;16.50;5.60;;;25.90;54.30;;;;;;5064532;28;20048;-56
2021/05/09 09:49:35;;;;;;;10.68;4.80;;;25.90;54.10;;;;;;5071297;28;20032;-56
2021/05/09 09:52:05;;;;;;;9.95;4.95;;;26.00;54.10;;;;;;5066939;28;20125;-56
2021/05/09 09:54:46;;;;;;;6.95;3.83;;;26.10;53.90;;;;;;5070152;28;20036;-56
2021/05/09 09:57:22;;;;;;;;;;;26.10;53.80;;;;;;5051717;28;20037;-56
2021/05/09 10:00:13;;;;;;;11.82;6.15;;;26.20;53.70;;;;;;5050975;28;19952;-56
2021/05/09 10:02:42;;;;;;;5.22;3.70;;;26.40;53.60;;;;;;5073339;28;20032;-57
2021/05/09 10:05:09;;;;;;;7.10;5.05;;;26.40;53.50;;;;;;5070883;28;20376;-55
2021/05/09 10:07:35;;;;;;;8.80;4.28;;;26.50;53.30;;;;;;5070906;28;20056;-54
2021/05/09 10:10:05;;;;;;;6.93;3.60;;;26.60;53.20;;;;;;5070949;28;20032;-54
2021/05/09 10:12:31;;;;;;;4.45;2.55;;;26.60;53.20;;;;;;5070334;28;20414;-54
2021/05/09 10:14:57;;;;;;;6.97;3.38;;;26.70;52.30;;;;;;5071112;28;20036;-54
2021/05/09 10:17:24;;;;;;;5.38;2.67;;;26.80;51.70;;;;;;5086683;28;20047;-54
2021/05/09 10:19:52;;;;;;;4.95;2.72;;;26.80;49.30;;;;;;5071186;28;20041;-54
2021/05/09 10:22:34;;;;;;;4.93;2.92;;;26.90;48.00;;;;;;5070721;28;20031;-54
2021/05/09 10:25:02;;;;;;;4.38;2.78;;;26.90;48.60;;;;;;5070831;28;20158;-54
2021/05/09 10:27:42;;;;;;;6.30;2.40;;;27.00;47.70;;;;;;5070759;28;20090;-55
2021/05/09 10:30:10;;;;;;;6.88;2.65;;;27.00;48.10;;;;;;5070566;28;20131;-54
2021/05/09 10:32:36;;;;;;;8.50;5.07;;;27.00;48.20;;;;;;5070695;28;20135;-55
2021/05/09 10:35:03;;;;;;;6.65;2.90;;;27.20;46.10;;;;;;5036186;28;20049;-50
2021/05/09 10:37:38;;;;;;;4.78;2.42;;;27.20;46.40;;;;;;5071812;28;20170;-50
2021/05/09 10:40:23;;;;;;;4.15;2.38;;;27.10;46.10;;;;;;5071798;28;20058;-50
2021/05/09 10:43:14;;;;;;;4.78;2.65;;;27.20;46.90;;;;;;5071660;28;20067;-50
2021/05/09 10:45:40;;;;;;;9.82;5.05;;;27.30;44.40;;;;;;5055298;28;20036;-50
2021/05/09 10:50:42;;;;;;;10.18;2.67;;;27.10;43.20;;;;;;5086138;28;20067;-51
2021/05/09 10:53:08;;;;;;;7.18;3.42;;;27.00;44.10;;;;;;5070749;28;20503;-55
2021/05/09 10:55:43;;;;;;;9.82;2.60;;;27.00;44.20;;;;;;5038435;28;20049;-56
2021/05/09 10:58:11;;;;;;;7.15;2.22;;;27.00;44.50;;;;;;5067561;28;20043;-56
2021/05/09 11:00:56;;;;;;;9.68;3.20;;;27.10;45.20;;;;;;5066947;28;20102;-56
2021/05/09 11:03:37;;;;;;;7.82;4.07;;;27.10;45.70;;;;;;5068846;28;20098;-56
2021/05/09 11:06:15;;;;;;;7.97;5.03;;;27.20;45.80;;;;;;5069948;28;20036;-57
2021/05/09 11:08:48;;;;;;;7.45;6.55;;;27.20;45.80;;;;;;5069351;28;20033;-57
2021/05/09 11:11:22;;;;;;;9.38;8.32;;;27.30;45.80;;;;;;5069706;28;20040;-56
2021/05/09 11:13:57;;;;;;;11.98;10.75;;;27.30;46.00;;;;;;5069905;28;20047;-56
2021/05/09 11:16:27;;;;;;;11.50;10.27;;;27.40;46.10;;;;;;5070107;28;20033;-56
2021/05/09 11:19:03;;;;;;;13.20;11.15;;;27.40;46.30;;;;;;5069739;28;20029;-56
2021/05/09 11:21:51;;;;;;;15.52;10.73;;;27.50;46.30;;;;;;5069997;28;20032;-56
2021/05/09 11:24:28;;;;;;;11.88;10.23;;;27.50;46.40;;;;;;5068433;28;20410;-56
2021/05/09 11:26:56;;;;;;;13.68;9.77;;;27.50;46.30;;;;;;5068825;28;20032;-56
2021/05/09 11:29:24;;;;;;;9.60;8.32;;;27.60;46.40;;;;;;5068323;28;20421;-56
2021/05/09 11:31:55;;;;;;;8.63;7.78;;;27.60;46.30;;;;;;5069043;28;20037;-51
2021/05/09 11:34:23;;;;;;;8.60;7.70;;;27.60;46.20;;;;;;5071790;28;20052;-56
2021/05/09 11:36:51;;;;;;;9.18;7.05;;;27.70;46.20;;;;;;5070553;28;20445;-56
2021/05/09 11:39:35;;;;;;;9.40;7.30;;;27.70;46.20;;;;;;5069556;28;20494;-56
2021/05/09 11:42:04;;;;;;;8.40;7.47;;;27.70;46.20;;;;;;5071510;28;20112;-56
2021/05/09 11:44:34;;;;;;;14.13;8.18;;;27.80;46.20;;;;;;5057695;28;20090;-57
2021/05/09 11:47:04;;;;;;;16.15;14.45;;;27.80;46.10;;;;;;5067176;28;20132;-56
2021/05/09 11:49:31;;;;;;;18.50;16.65;;;27.90;46.10;;;;;;5049984;28;20041;-56
2021/05/09 11:52:14;;;;;;;18.67;16.70;;;28.00;46.00;;;;;;5065709;28;20162;-56
2021/05/09 11:54:46;;;;;;;10.18;6.45;;;28.00;45.80;;;;;;5055650;28;20037;-56
2021/05/09 11:57:13;;;;;;;8.60;2.72;;;28.00;44.50;;;;;;5063943;28;20383;-56
2021/05/09 11:59:43;;;;;;;12.32;2.88;;;28.00;45.00;;;;;;5069436;28;20032;-56
2021/05/09 12:02:12;;;;;;;8.05;2.25;;;27.90;43.80;;;;;;5070715;28;20043;-56
2021/05/09 12:04:39;;;;;;;8.85;2.70;;;27.90;43.90;;;;;;5072214;28;20513;-56
2021/05/09 12:07:08;;;;;;;7.70;2.63;;;27.90;44.30;;;;;;5072507;28;20410;-56
2021/05/09 12:09:35;;;;;;;6.05;2.40;;;27.90;44.40;;;;;;5071970;28;20033;-56
2021/05/09 12:12:01;;;;;;;4.20;2.30;;;27.90;44.40;;;;;;5087914;28;20051;-56
2021/05/09 12:14:29;;;;;;;5.57;2.40;;;27.80;44.60;;;;;;5072080;28;20041;-56
2021/05/09 12:16:55;;;;;;;8.77;2.45;;;27.80;44.50;;;;;;5071996;28;20335;-56
2021/05/09 12:19:35;;;;;;;6.80;2.38;;;27.80;44.70;;;;;;5072259;28;20036;-56
2021/05/09 12:22:04;;;;;;;6.40;2.93;;;27.80;45.00;;;;;;5071970;28;20029;-56
2021/05/09 12:24:49;;;;;;;8.83;2.30;;;27.80;44.90;;;;;;5072355;28;20397;-56
2021/05/09 12:27:16;;;;;;;10.07;3.05;;;27.70;45.00;;;;;;5087367;28;20045;-57
2021/05/09 12:29:55;;;;;;;8.25;3.08;;;27.80;44.90;;;;;;5072049;28;20498;-56
2021/05/09 12:32:24;;;;;;;10.07;2.65;;;27.80;45.00;;;;;;5071791;28;20052;-56
2021/05/09 12:35:19;;;;;;;8.73;2.78;;;27.80;45.10;;;;;;5071558;28;20119;-56
2021/05/09 12:37:48;;;;;;;6.65;2.63;;;27.80;45.20;;;;;;4970681;28;20045;-56
2021/05/09 12:40:24;;;;;;;4.53;2.30;;;27.70;44.90;;;;;;4970576;28;20049;-56
2021/05/09 12:43:10;;;;;;;6.80;2.63;;;27.70;44.80;;;;;;4970839;28;20086;-56
2021/05/09 12:45:41;;;;;;;7.85;1.95;;;27.70;44.70;;;;;;4970341;28;20047;-56
2021/05/09 12:48:13;;;;;;;6.72;2.60;;;27.70;44.60;;;;;;4970291;28;20035;-56
2021/05/09 12:50:46;;;;;;;9.25;2.25;;;27.70;44.50;;;;;;4970292;28;20398;-56